sensor_id;sensor_type;location;lat;lon;timestamp;temperature;humidity
42479;DHT22;28110;47.080;9.476;2024-03-02T00:00:25;6.80;99.90
42479;DHT22;28110;47.080;9.476;2024-03-02T00:02:52;6.80;99.90
42479;DHT22;28110;47.080;9.476;2024-03-02T00:05:19;6.80;99.90
42479;DHT22;28110;47.080;9.476;2024-03-02T00:07:55;6.80;99.90
42479;DHT22;28110;47.080;9.476;2024-03-02T00:10:37;6.80;99.90
42479;DHT22;28110;47.080;9.476;2024-03-02T00:13:06;6.80;99.90
42479;DHT22;28110;47.080;9.476;2024-03-02T00:18:16;6.80;99.90
42479;DHT22;28110;47.080;9.476;2024-03-02T00:20:43;6.80;99.90
42479;DHT22;28110;47.080;9.476;2024-03-02T00:23:10;6.80;99.90
42479;DHT22;28110;47.080;9.476;2024-03-02T00:25:43;6.70;99.90
42479;DHT22;28110;47.080;9.476;2024-03-02T00:28:22;6.70;99.90
42479;DHT22;28110;47.080;9.476;2024-03-02T00:33:21;6.80;99.90
42479;DHT22;28110;47.080;9.476;2024-03-02T00:35:47;6.90;99.90
42479;DHT22;28110;47.080;9.476;2024-03-02T00:38:13;6.90;99.90
42479;DHT22;28110;47.080;9.476;2024-03-02T00:40:41;7.00;99.90
42479;DHT22;28110;47.080;9.476;2024-03-02T00:45:44;6.90;99.90
42479;DHT22;28110;47.080;9.476;2024-03-02T00:48:10;6.90;99.90
42479;DHT22;28110;47.080;9.476;2024-03-02T00:50:36;6.90;99.90
42479;DHT22;28110;47.080;9.476;2024-03-02T00:53:02;6.90;99.90
42479;DHT22;28110;47.080;9.476;2024-03-02T00:55:27;6.80;99.90
42479;DHT22;28110;47.080;9.476;2024-03-02T00:57:53;6.90;99.90
42479;DHT22;28110;47.080;9.476;2024-03-02T01:00:19;6.80;99.90
42479;DHT22;28110;47.080;9.476;2024-03-02T01:02:45;6.80;99.90
42479;DHT22;28110;47.080;9.476;2024-03-02T01:05:11;6.90;99.90
42479;DHT22;28110;47.080;9.476;2024-03-02T01:07:38;6.90;99.90
42479;DHT22;28110;47.080;9.476;2024-03-02T01:10:04;6.90;99.90
42479;DHT22;28110;47.080;9.476;2024-03-02T01:12:30;6.80;99.90
42479;DHT22;28110;47.080;9.476;2024-03-02T01:14:55;6.80;99.90
42479;DHT22;28110;47.080;9.476;2024-03-02T01:17:21;6.80;99.90
42479;DHT22;28110;47.080;9.476;2024-03-02T01:19:47;6.80;99.90
42479;DHT22;28110;47.080;9.476;2024-03-02T01:22:13;6.70;99.90
42479;DHT22;28110;47.080;9.476;2024-03-02T01:24:38;6.70;99.90
42479;DHT22;28110;47.080;9.476;2024-03-02T01:27:04;6.70;99.90
42479;DHT22;28110;47.080;9.476;2024-03-02T01:29:30;6.70;99.90
42479;DHT22;28110;47.080;9.476;2024-03-02T01:31:55;6.70;99.90
42479;DHT22;28110;47.080;9.476;2024-03-02T01:34:21;6.70;99.90
42479;DHT22;28110;47.080;9.476;2024-03-02T01:36:46;6.70;99.90
42479;DHT22;28110;47.080;9.476;2024-03-02T01:39:12;6.70;99.90
42479;DHT22;28110;47.080;9.476;2024-03-02T01:41:37;6.80;99.90
42479;DHT22;28110;47.080;9.476;2024-03-02T01:44:04;6.80;99.90
42479;DHT22;28110;47.080;9.476;2024-03-02T01:46:29;6.80;99.90
42479;DHT22;28110;47.080;9.476;2024-03-02T01:48:55;6.80;99.90
42479;DHT22;28110;47.080;9.476;2024-03-02T01:51:20;6.80;99.90
42479;DHT22;28110;47.080;9.476;2024-03-02T01:53:46;6.80;99.90
42479;DHT22;28110;47.080;9.476;2024-03-02T01:56:12;6.80;99.90
42479;DHT22;28110;47.080;9.476;2024-03-02T01:58:37;6.80;99.90
42479;DHT22;28110;47.080;9.476;2024-03-02T02:01:03;6.80;99.90
42479;DHT22;28110;47.080;9.476;2024-03-02T02:03:29;6.80;99.90
42479;DHT22;28110;47.080;9.476;2024-03-02T02:05:55;6.80;99.90
42479;DHT22;28110;47.080;9.476;2024-03-02T02:08:20;6.70;99.90
42479;DHT22;28110;47.080;9.476;2024-03-02T02:10:46;6.80;99.90
42479;DHT22;28110;47.080;9.476;2024-03-02T02:13:11;6.70;99.90
42479;DHT22;28110;47.080;9.476;2024-03-02T02:15:37;6.80;99.90
42479;DHT22;28110;47.080;9.476;2024-03-02T02:18:03;6.80;99.90
42479;DHT22;28110;47.080;9.476;2024-03-02T02:20:29;6.80;99.90
42479;DHT22;28110;47.080;9.476;2024-03-02T02:22:59;6.80;99.90
42479;DHT22;28110;47.080;9.476;2024-03-02T02:25:25;6.80;99.90
42479;DHT22;28110;47.080;9.476;2024-03-02T02:27:51;6.80;99.90
42479;DHT22;28110;47.080;9.476;2024-03-02T02:30:21;6.80;99.90
42479;DHT22;28110;47.080;9.476;2024-03-02T02:32:47;6.80;99.90
42479;DHT22;28110;47.080;9.476;2024-03-02T02:35:13;6.70;99.90
42479;DHT22;28110;47.080;9.476;2024-03-02T02:37:38;6.70;99.90
42479;DHT22;28110;47.080;9.476;2024-03-02T02:40:05;6.70;99.90
42479;DHT22;28110;47.080;9.476;2024-03-02T02:42:30;6.70;99.90
42479;DHT22;28110;47.080;9.476;2024-03-02T02:44:56;6.60;99.90
42479;DHT22;28110;47.080;9.476;2024-03-02T02:47:21;6.60;99.90
42479;DHT22;28110;47.080;9.476;2024-03-02T02:49:47;6.60;99.90
42479;DHT22;28110;47.080;9.476;2024-03-02T02:52:12;6.60;99.90
42479;DHT22;28110;47.080;9.476;2024-03-02T02:54:38;6.60;99.90
42479;DHT22;28110;47.080;9.476;2024-03-02T02:57:04;6.60;99.90
42479;DHT22;28110;47.080;9.476;2024-03-02T02:59:29;6.60;99.90
42479;DHT22;28110;47.080;9.476;2024-03-02T03:01:55;6.60;99.90
42479;DHT22;28110;47.080;9.476;2024-03-02T03:04:20;6.50;99.90
42479;DHT22;28110;47.080;9.476;2024-03-02T03:06:46;6.50;99.90
42479;DHT22;28110;47.080;9.476;2024-03-02T03:09:11;6.50;99.90
42479;DHT22;28110;47.080;9.476;2024-03-02T03:11:37;6.50;99.90
42479;DHT22;28110;47.080;9.476;2024-03-02T03:14:02;6.50;99.90
42479;DHT22;28110;47.080;9.476;2024-03-02T03:16:30;6.50;99.90
42479;DHT22;28110;47.080;9.476;2024-03-02T03:18:56;6.50;99.90
42479;DHT22;28110;47.080;9.476;2024-03-02T03:21:21;6.50;99.90
42479;DHT22;28110;47.080;9.476;2024-03-02T03:23:47;6.50;99.90
42479;DHT22;28110;47.080;9.476;2024-03-02T03:26:12;6.50;99.90
42479;DHT22;28110;47.080;9.476;2024-03-02T03:28:39;6.50;99.90
42479;DHT22;28110;47.080;9.476;2024-03-02T03:31:05;6.50;99.90
42479;DHT22;28110;47.080;9.476;2024-03-02T03:33:30;6.50;99.90
42479;DHT22;28110;47.080;9.476;2024-03-02T03:35:56;6.50;99.90
42479;DHT22;28110;47.080;9.476;2024-03-02T03:38:21;6.50;99.90
42479;DHT22;28110;47.080;9.476;2024-03-02T03:40:47;6.40;99.90
42479;DHT22;28110;47.080;9.476;2024-03-02T03:43:13;6.40;99.90
42479;DHT22;28110;47.080;9.476;2024-03-02T03:45:38;6.40;99.90
42479;DHT22;28110;47.080;9.476;2024-03-02T03:48:04;6.40;99.90
42479;DHT22;28110;47.080;9.476;2024-03-02T03:50:30;6.40;99.90
42479;DHT22;28110;47.080;9.476;2024-03-02T03:52:55;6.40;99.90
42479;DHT22;28110;47.080;9.476;2024-03-02T03:55:21;6.40;99.90
42479;DHT22;28110;47.080;9.476;2024-03-02T03:57:46;6.40;99.90
42479;DHT22;28110;47.080;9.476;2024-03-02T04:00:12;6.40;99.90
42479;DHT22;28110;47.080;9.476;2024-03-02T04:02:38;6.40;99.90
42479;DHT22;28110;47.080;9.476;2024-03-02T04:05:04;6.30;99.90
42479;DHT22;28110;47.080;9.476;2024-03-02T04:07:35;6.30;99.90
42479;DHT22;28110;47.080;9.476;2024-03-02T04:10:06;6.30;99.90
42479;DHT22;28110;47.080;9.476;2024-03-02T04:12:33;6.30;99.90
42479;DHT22;28110;47.080;9.476;2024-03-02T04:14:59;6.20;99.90
42479;DHT22;28110;47.080;9.476;2024-03-02T04:17:24;6.20;99.90
42479;DHT22;28110;47.080;9.476;2024-03-02T04:19:50;6.20;99.90
42479;DHT22;28110;47.080;9.476;2024-03-02T04:22:15;6.20;99.90
42479;DHT22;28110;47.080;9.476;2024-03-02T04:24:41;6.10;99.90
42479;DHT22;28110;47.080;9.476;2024-03-02T04:27:07;6.20;99.90
42479;DHT22;28110;47.080;9.476;2024-03-02T04:29:32;6.10;99.90
42479;DHT22;28110;47.080;9.476;2024-03-02T04:31:58;6.20;99.90
42479;DHT22;28110;47.080;9.476;2024-03-02T04:34:23;6.20;99.90
42479;DHT22;28110;47.080;9.476;2024-03-02T04:36:49;6.20;99.90
42479;DHT22;28110;47.080;9.476;2024-03-02T04:39:15;6.20;99.90
42479;DHT22;28110;47.080;9.476;2024-03-02T04:41:41;6.20;99.90
42479;DHT22;28110;47.080;9.476;2024-03-02T04:44:06;6.20;99.90
42479;DHT22;28110;47.080;9.476;2024-03-02T04:46:33;6.20;99.90
42479;DHT22;28110;47.080;9.476;2024-03-02T04:48:58;6.20;99.90
42479;DHT22;28110;47.080;9.476;2024-03-02T04:51:24;6.20;99.90
42479;DHT22;28110;47.080;9.476;2024-03-02T04:53:49;6.20;99.90
42479;DHT22;28110;47.080;9.476;2024-03-02T04:56:15;6.20;99.90
42479;DHT22;28110;47.080;9.476;2024-03-02T04:59:13;6.20;99.90
42479;DHT22;28110;47.080;9.476;2024-03-02T05:01:38;6.10;99.90
42479;DHT22;28110;47.080;9.476;2024-03-02T05:04:04;6.10;99.90
42479;DHT22;28110;47.080;9.476;2024-03-02T05:06:30;6.00;99.90
42479;DHT22;28110;47.080;9.476;2024-03-02T05:08:55;6.10;99.90
42479;DHT22;28110;47.080;9.476;2024-03-02T05:11:21;6.00;99.90
42479;DHT22;28110;47.080;9.476;2024-03-02T05:14:03;6.00;99.90
42479;DHT22;28110;47.080;9.476;2024-03-02T05:16:28;6.10;99.90
42479;DHT22;28110;47.080;9.476;2024-03-02T05:18:54;6.10;99.90
42479;DHT22;28110;47.080;9.476;2024-03-02T05:21:19;6.00;99.90
42479;DHT22;28110;47.080;9.476;2024-03-02T05:23:45;6.10;99.90
42479;DHT22;28110;47.080;9.476;2024-03-02T05:26:10;6.10;99.90
42479;DHT22;28110;47.080;9.476;2024-03-02T05:28:38;6.10;99.90
42479;DHT22;28110;47.080;9.476;2024-03-02T05:31:04;6.10;99.90
42479;DHT22;28110;47.080;9.476;2024-03-02T05:33:29;6.10;99.90
42479;DHT22;28110;47.080;9.476;2024-03-02T05:35:57;6.10;99.90
42479;DHT22;28110;47.080;9.476;2024-03-02T05:38:22;6.10;99.90
42479;DHT22;28110;47.080;9.476;2024-03-02T05:40:48;6.10;99.90
42479;DHT22;28110;47.080;9.476;2024-03-02T05:43:13;6.10;99.90
42479;DHT22;28110;47.080;9.476;2024-03-02T05:45:39;6.10;99.90
42479;DHT22;28110;47.080;9.476;2024-03-02T05:48:06;6.20;99.90
42479;DHT22;28110;47.080;9.476;2024-03-02T05:50:33;6.10;99.90
42479;DHT22;28110;47.080;9.476;2024-03-02T05:52:58;6.10;99.90
42479;DHT22;28110;47.080;9.476;2024-03-02T05:55:24;6.10;99.90
42479;DHT22;28110;47.080;9.476;2024-03-02T05:57:50;6.20;99.90
42479;DHT22;28110;47.080;9.476;2024-03-02T06:00:44;6.20;99.90
42479;DHT22;28110;47.080;9.476;2024-03-02T06:03:10;6.20;99.90
42479;DHT22;28110;47.080;9.476;2024-03-02T06:05:36;6.20;99.90
42479;DHT22;28110;47.080;9.476;2024-03-02T06:08:01;6.20;99.90
42479;DHT22;28110;47.080;9.476;2024-03-02T06:10:27;6.20;99.90
42479;DHT22;28110;47.080;9.476;2024-03-02T06:12:52;6.20;99.90
42479;DHT22;28110;47.080;9.476;2024-03-02T06:15:18;6.20;99.90
42479;DHT22;28110;47.080;9.476;2024-03-02T06:17:44;6.20;99.90
42479;DHT22;28110;47.080;9.476;2024-03-02T06:20:10;6.20;99.90
42479;DHT22;28110;47.080;9.476;2024-03-02T06:22:36;6.10;99.90
42479;DHT22;28110;47.080;9.476;2024-03-02T06:25:01;6.20;99.90
42479;DHT22;28110;47.080;9.476;2024-03-02T06:27:27;6.20;99.90
42479;DHT22;28110;47.080;9.476;2024-03-02T06:29:52;6.10;99.90
42479;DHT22;28110;47.080;9.476;2024-03-02T06:32:18;6.10;99.90
42479;DHT22;28110;47.080;9.476;2024-03-02T06:34:44;6.20;99.90
42479;DHT22;28110;47.080;9.476;2024-03-02T06:37:09;6.10;99.90
42479;DHT22;28110;47.080;9.476;2024-03-02T06:39:35;6.10;99.90
42479;DHT22;28110;47.080;9.476;2024-03-02T06:42:01;6.10;99.90
42479;DHT22;28110;47.080;9.476;2024-03-02T06:44:27;6.10;99.90
42479;DHT22;28110;47.080;9.476;2024-03-02T06:46:52;6.10;99.90
42479;DHT22;28110;47.080;9.476;2024-03-02T06:49:18;6.20;99.90
42479;DHT22;28110;47.080;9.476;2024-03-02T06:51:44;6.20;99.90
42479;DHT22;28110;47.080;9.476;2024-03-02T06:54:09;6.20;99.90
42479;DHT22;28110;47.080;9.476;2024-03-02T06:56:35;6.30;99.90
42479;DHT22;28110;47.080;9.476;2024-03-02T06:59:01;6.30;99.90
42479;DHT22;28110;47.080;9.476;2024-03-02T07:01:26;6.40;99.90
42479;DHT22;28110;47.080;9.476;2024-03-02T07:03:53;6.40;99.90
42479;DHT22;28110;47.080;9.476;2024-03-02T07:06:18;6.40;99.90
42479;DHT22;28110;47.080;9.476;2024-03-02T07:08:44;6.40;99.90
42479;DHT22;28110;47.080;9.476;2024-03-02T07:11:10;6.40;99.90
42479;DHT22;28110;47.080;9.476;2024-03-02T07:13:35;6.40;99.90
42479;DHT22;28110;47.080;9.476;2024-03-02T07:16:01;6.40;99.90
42479;DHT22;28110;47.080;9.476;2024-03-02T07:18:30;6.50;99.90
42479;DHT22;28110;47.080;9.476;2024-03-02T07:21:07;6.50;99.90
42479;DHT22;28110;47.080;9.476;2024-03-02T07:23:32;6.50;99.90
42479;DHT22;28110;47.080;9.476;2024-03-02T07:25:58;6.60;99.90
42479;DHT22;28110;47.080;9.476;2024-03-02T07:28:26;6.60;99.90
42479;DHT22;28110;47.080;9.476;2024-03-02T07:31:01;6.60;99.90
42479;DHT22;28110;47.080;9.476;2024-03-02T07:33:27;6.70;99.90
42479;DHT22;28110;47.080;9.476;2024-03-02T07:35:54;6.70;99.90
42479;DHT22;28110;47.080;9.476;2024-03-02T07:38:20;6.70;99.90
42479;DHT22;28110;47.080;9.476;2024-03-02T07:40:47;6.80;99.90
42479;DHT22;28110;47.080;9.476;2024-03-02T07:43:12;6.80;99.90
42479;DHT22;28110;47.080;9.476;2024-03-02T07:45:38;6.80;99.90
42479;DHT22;28110;47.080;9.476;2024-03-02T07:48:04;6.80;99.90
42479;DHT22;28110;47.080;9.476;2024-03-02T07:50:29;6.90;99.90
42479;DHT22;28110;47.080;9.476;2024-03-02T07:53:00;6.90;99.90
42479;DHT22;28110;47.080;9.476;2024-03-02T07:55:26;7.00;99.90
42479;DHT22;28110;47.080;9.476;2024-03-02T07:57:51;7.00;99.90
42479;DHT22;28110;47.080;9.476;2024-03-02T08:00:17;7.00;99.90
42479;DHT22;28110;47.080;9.476;2024-03-02T08:02:43;7.10;99.90
42479;DHT22;28110;47.080;9.476;2024-03-02T08:05:08;7.10;99.90
42479;DHT22;28110;47.080;9.476;2024-03-02T08:07:34;7.20;99.90
42479;DHT22;28110;47.080;9.476;2024-03-02T08:10:00;7.30;99.90
42479;DHT22;28110;47.080;9.476;2024-03-02T08:12:25;7.30;99.90
42479;DHT22;28110;47.080;9.476;2024-03-02T08:14:51;7.30;99.90
42479;DHT22;28110;47.080;9.476;2024-03-02T08:17:17;7.40;99.90
42479;DHT22;28110;47.080;9.476;2024-03-02T08:19:43;7.50;99.90
42479;DHT22;28110;47.080;9.476;2024-03-02T08:22:09;7.50;99.90
42479;DHT22;28110;47.080;9.476;2024-03-02T08:24:35;7.60;99.90
42479;DHT22;28110;47.080;9.476;2024-03-02T08:27:01;7.70;99.90
42479;DHT22;28110;47.080;9.476;2024-03-02T08:29:26;7.70;99.90
42479;DHT22;28110;47.080;9.476;2024-03-02T08:31:53;7.70;99.90
42479;DHT22;28110;47.080;9.476;2024-03-02T08:34:18;7.90;99.90
42479;DHT22;28110;47.080;9.476;2024-03-02T08:36:44;7.90;99.90
42479;DHT22;28110;47.080;9.476;2024-03-02T08:39:10;8.00;99.90
42479;DHT22;28110;47.080;9.476;2024-03-02T08:41:44;8.20;99.90
42479;DHT22;28110;47.080;9.476;2024-03-02T08:44:10;8.40;99.90
42479;DHT22;28110;47.080;9.476;2024-03-02T08:46:36;8.60;99.90
42479;DHT22;28110;47.080;9.476;2024-03-02T08:49:02;8.80;99.90
42479;DHT22;28110;47.080;9.476;2024-03-02T08:51:28;9.00;99.90
42479;DHT22;28110;47.080;9.476;2024-03-02T08:53:54;9.20;99.90
42479;DHT22;28110;47.080;9.476;2024-03-02T08:56:19;9.40;99.90
42479;DHT22;28110;47.080;9.476;2024-03-02T08:58:47;9.50;99.90
42479;DHT22;28110;47.080;9.476;2024-03-02T09:01:12;9.60;99.90
42479;DHT22;28110;47.080;9.476;2024-03-02T09:03:38;9.80;99.90
42479;DHT22;28110;47.080;9.476;2024-03-02T09:06:04;9.90;99.90
42479;DHT22;28110;47.080;9.476;2024-03-02T09:08:29;10.00;99.90
42479;DHT22;28110;47.080;9.476;2024-03-02T09:10:56;10.00;99.90
42479;DHT22;28110;47.080;9.476;2024-03-02T09:13:21;10.10;99.90
42479;DHT22;28110;47.080;9.476;2024-03-02T09:15:47;10.20;99.90
42479;DHT22;28110;47.080;9.476;2024-03-02T09:18:13;10.20;99.90
42479;DHT22;28110;47.080;9.476;2024-03-02T09:20:39;10.30;99.90
42479;DHT22;28110;47.080;9.476;2024-03-02T09:23:04;10.30;99.90
42479;DHT22;28110;47.080;9.476;2024-03-02T09:25:30;10.50;99.90
42479;DHT22;28110;47.080;9.476;2024-03-02T09:27:55;10.50;99.90
42479;DHT22;28110;47.080;9.476;2024-03-02T09:30:21;10.70;99.90
42479;DHT22;28110;47.080;9.476;2024-03-02T09:32:47;10.80;99.90
42479;DHT22;28110;47.080;9.476;2024-03-02T09:35:13;10.80;99.90
42479;DHT22;28110;47.080;9.476;2024-03-02T09:37:38;10.90;99.90
42479;DHT22;28110;47.080;9.476;2024-03-02T09:40:04;11.00;99.90
42479;DHT22;28110;47.080;9.476;2024-03-02T09:42:31;11.10;99.90
42479;DHT22;28110;47.080;9.476;2024-03-02T09:44:57;11.20;99.90
42479;DHT22;28110;47.080;9.476;2024-03-02T09:47:23;11.30;99.90
42479;DHT22;28110;47.080;9.476;2024-03-02T09:49:49;11.40;99.90
42479;DHT22;28110;47.080;9.476;2024-03-02T09:52:14;11.50;99.90
42479;DHT22;28110;47.080;9.476;2024-03-02T09:54:40;11.60;99.90
42479;DHT22;28110;47.080;9.476;2024-03-02T09:57:06;11.60;99.90
42479;DHT22;28110;47.080;9.476;2024-03-02T09:59:32;11.70;99.90
42479;DHT22;28110;47.080;9.476;2024-03-02T10:02:02;11.70;99.90
42479;DHT22;28110;47.080;9.476;2024-03-02T10:04:29;11.70;99.90
42479;DHT22;28110;47.080;9.476;2024-03-02T10:07:10;11.80;99.90
42479;DHT22;28110;47.080;9.476;2024-03-02T10:09:37;11.90;99.90
42479;DHT22;28110;47.080;9.476;2024-03-02T10:12:06;12.00;99.90
42479;DHT22;28110;47.080;9.476;2024-03-02T10:14:32;12.00;99.90
42479;DHT22;28110;47.080;9.476;2024-03-02T10:17:14;12.10;99.90
42479;DHT22;28110;47.080;9.476;2024-03-02T10:19:41;12.10;99.90
42479;DHT22;28110;47.080;9.476;2024-03-02T10:22:09;12.10;99.90
42479;DHT22;28110;47.080;9.476;2024-03-02T10:24:44;12.10;99.90
42479;DHT22;28110;47.080;9.476;2024-03-02T10:29:40;12.20;99.90
42479;DHT22;28110;47.080;9.476;2024-03-02T10:32:09;12.30;99.90
42479;DHT22;28110;47.080;9.476;2024-03-02T10:34:35;12.40;99.90
42479;DHT22;28110;47.080;9.476;2024-03-02T10:37:01;12.50;99.90
42479;DHT22;28110;47.080;9.476;2024-03-02T10:39:28;12.50;99.90
42479;DHT22;28110;47.080;9.476;2024-03-02T10:41:55;12.50;99.90
42479;DHT22;28110;47.080;9.476;2024-03-02T10:44:22;12.40;99.90
42479;DHT22;28110;47.080;9.476;2024-03-02T10:46:49;12.40;99.90
42479;DHT22;28110;47.080;9.476;2024-03-02T10:49:16;12.40;99.90
42479;DHT22;28110;47.080;9.476;2024-03-02T10:51:43;12.40;99.90
42479;DHT22;28110;47.080;9.476;2024-03-02T10:54:08;12.50;99.90
42479;DHT22;28110;47.080;9.476;2024-03-02T10:56:39;12.50;99.90
42479;DHT22;28110;47.080;9.476;2024-03-02T10:59:16;12.50;99.90
42479;DHT22;28110;47.080;9.476;2024-03-02T11:01:43;12.50;99.90
42479;DHT22;28110;47.080;9.476;2024-03-02T11:04:09;12.40;99.90
42479;DHT22;28110;47.080;9.476;2024-03-02T11:06:38;12.30;99.90
42479;DHT22;28110;47.080;9.476;2024-03-02T11:09:07;12.30;99.90
42479;DHT22;28110;47.080;9.476;2024-03-02T11:11:41;12.20;99.90
42479;DHT22;28110;47.080;9.476;2024-03-02T11:14:13;12.10;99.90
42479;DHT22;28110;47.080;9.476;2024-03-02T11:16:39;12.10;99.90
42479;DHT22;28110;47.080;9.476;2024-03-02T11:19:10;12.20;99.90
42479;DHT22;28110;47.080;9.476;2024-03-02T11:21:37;12.20;99.90
42479;DHT22;28110;47.080;9.476;2024-03-02T11:26:47;12.20;99.90
42479;DHT22;28110;47.080;9.476;2024-03-02T11:32:01;12.30;99.90
42479;DHT22;28110;47.080;9.476;2024-03-02T11:34:30;12.30;99.90
42479;DHT22;28110;47.080;9.476;2024-03-02T11:36:57;12.20;99.90
42479;DHT22;28110;47.080;9.476;2024-03-02T11:39:27;12.20;99.90
42479;DHT22;28110;47.080;9.476;2024-03-02T11:41:54;12.20;99.90
42479;DHT22;28110;47.080;9.476;2024-03-02T11:44:20;12.30;99.90
42479;DHT22;28110;47.080;9.476;2024-03-02T11:46:59;12.30;99.90
42479;DHT22;28110;47.080;9.476;2024-03-02T11:49:45;12.30;99.90
42479;DHT22;28110;47.080;9.476;2024-03-02T11:52:13;12.30;99.90
42479;DHT22;28110;47.080;9.476;2024-03-02T11:54:42;12.40;99.90
42479;DHT22;28110;47.080;9.476;2024-03-02T11:57:18;12.40;99.90
42479;DHT22;28110;47.080;9.476;2024-03-02T11:59:45;12.50;99.90
42479;DHT22;28110;47.080;9.476;2024-03-02T12:02:21;12.60;99.90
42479;DHT22;28110;47.080;9.476;2024-03-02T12:04:49;12.70;99.90
42479;DHT22;28110;47.080;9.476;2024-03-02T12:07:22;12.70;99.90
42479;DHT22;28110;47.080;9.476;2024-03-02T12:09:49;12.80;99.90
42479;DHT22;28110;47.080;9.476;2024-03-02T12:12:24;12.90;99.90
42479;DHT22;28110;47.080;9.476;2024-03-02T12:14:51;13.10;99.90
42479;DHT22;28110;47.080;9.476;2024-03-02T12:17:17;13.10;99.90
42479;DHT22;28110;47.080;9.476;2024-03-02T12:19:43;13.20;99.90
42479;DHT22;28110;47.080;9.476;2024-03-02T12:22:09;13.20;99.90
42479;DHT22;28110;47.080;9.476;2024-03-02T12:24:35;13.30;99.90
42479;DHT22;28110;47.080;9.476;2024-03-02T12:27:01;13.30;99.90
42479;DHT22;28110;47.080;9.476;2024-03-02T12:29:26;13.30;99.90
42479;DHT22;28110;47.080;9.476;2024-03-02T12:31:52;13.30;99.90
42479;DHT22;28110;47.080;9.476;2024-03-02T12:34:18;13.20;99.90
42479;DHT22;28110;47.080;9.476;2024-03-02T12:36:46;13.20;99.90
42479;DHT22;28110;47.080;9.476;2024-03-02T12:39:15;13.20;99.90
42479;DHT22;28110;47.080;9.476;2024-03-02T12:41:41;13.20;99.90
42479;DHT22;28110;47.080;9.476;2024-03-02T12:44:08;13.20;99.90
42479;DHT22;28110;47.080;9.476;2024-03-02T12:46:33;13.20;99.90
42479;DHT22;28110;47.080;9.476;2024-03-02T12:49:07;13.30;99.90
42479;DHT22;28110;47.080;9.476;2024-03-02T12:51:33;13.30;99.90
42479;DHT22;28110;47.080;9.476;2024-03-02T12:53:59;13.40;99.90
42479;DHT22;28110;47.080;9.476;2024-03-02T12:56:25;13.60;99.90
42479;DHT22;28110;47.080;9.476;2024-03-02T12:58:56;13.80;99.90
42479;DHT22;28110;47.080;9.476;2024-03-02T13:01:23;14.20;99.90
42479;DHT22;28110;47.080;9.476;2024-03-02T13:03:49;14.40;99.90
42479;DHT22;28110;47.080;9.476;2024-03-02T13:06:16;14.50;99.90
42479;DHT22;28110;47.080;9.476;2024-03-02T13:08:42;14.70;99.90
42479;DHT22;28110;47.080;9.476;2024-03-02T13:11:08;14.80;99.90
42479;DHT22;28110;47.080;9.476;2024-03-02T13:13:34;15.00;99.90
42479;DHT22;28110;47.080;9.476;2024-03-02T13:16:00;15.10;99.90
42479;DHT22;28110;47.080;9.476;2024-03-02T13:18:25;15.20;99.90
42479;DHT22;28110;47.080;9.476;2024-03-02T13:20:52;15.30;99.90
42479;DHT22;28110;47.080;9.476;2024-03-02T13:23:17;15.40;99.90
42479;DHT22;28110;47.080;9.476;2024-03-02T13:25:43;15.40;99.90
42479;DHT22;28110;47.080;9.476;2024-03-02T13:28:08;15.50;99.30
42479;DHT22;28110;47.080;9.476;2024-03-02T13:30:34;15.50;98.70
42479;DHT22;28110;47.080;9.476;2024-03-02T13:33:00;15.50;98.70
42479;DHT22;28110;47.080;9.476;2024-03-02T13:35:26;15.40;97.70
42479;DHT22;28110;47.080;9.476;2024-03-02T13:37:51;15.40;97.10
42479;DHT22;28110;47.080;9.476;2024-03-02T13:40:17;15.30;96.90
42479;DHT22;28110;47.080;9.476;2024-03-02T13:42:46;15.30;97.70
42479;DHT22;28110;47.080;9.476;2024-03-02T13:45:13;15.20;97.30
42479;DHT22;28110;47.080;9.476;2024-03-02T13:47:39;15.30;96.70
42479;DHT22;28110;47.080;9.476;2024-03-02T13:50:04;15.30;96.30
42479;DHT22;28110;47.080;9.476;2024-03-02T13:52:31;15.30;96.80
42479;DHT22;28110;47.080;9.476;2024-03-02T13:54:57;15.30;96.90
42479;DHT22;28110;47.080;9.476;2024-03-02T13:57:22;15.30;96.10
42479;DHT22;28110;47.080;9.476;2024-03-02T13:59:49;15.30;96.20
42479;DHT22;28110;47.080;9.476;2024-03-02T14:02:14;15.30;95.40
42479;DHT22;28110;47.080;9.476;2024-03-02T14:04:40;15.30;94.00
42479;DHT22;28110;47.080;9.476;2024-03-02T14:07:06;15.30;94.60
42479;DHT22;28110;47.080;9.476;2024-03-02T14:09:36;15.20;94.50
42479;DHT22;28110;47.080;9.476;2024-03-02T14:12:02;15.10;94.10
42479;DHT22;28110;47.080;9.476;2024-03-02T14:14:27;15.10;95.10
42479;DHT22;28110;47.080;9.476;2024-03-02T14:16:54;15.00;95.00
42479;DHT22;28110;47.080;9.476;2024-03-02T14:19:21;14.90;95.20
42479;DHT22;28110;47.080;9.476;2024-03-02T14:21:47;14.80;95.70
42479;DHT22;28110;47.080;9.476;2024-03-02T14:24:13;14.70;95.40
42479;DHT22;28110;47.080;9.476;2024-03-02T14:26:38;14.80;95.40
42479;DHT22;28110;47.080;9.476;2024-03-02T14:29:04;14.70;95.60
42479;DHT22;28110;47.080;9.476;2024-03-02T14:31:30;14.70;94.80
42479;DHT22;28110;47.080;9.476;2024-03-02T14:33:56;14.60;95.90
42479;DHT22;28110;47.080;9.476;2024-03-02T14:36:22;14.60;95.00
42479;DHT22;28110;47.080;9.476;2024-03-02T14:38:48;14.60;94.80
42479;DHT22;28110;47.080;9.476;2024-03-02T14:41:14;14.60;95.30
42479;DHT22;28110;47.080;9.476;2024-03-02T14:43:40;14.60;95.40
42479;DHT22;28110;47.080;9.476;2024-03-02T14:46:06;14.60;95.30
42479;DHT22;28110;47.080;9.476;2024-03-02T14:48:35;14.50;94.50
42479;DHT22;28110;47.080;9.476;2024-03-02T14:51:00;14.50;94.90
42479;DHT22;28110;47.080;9.476;2024-03-02T14:53:27;14.40;95.00
42479;DHT22;28110;47.080;9.476;2024-03-02T14:55:53;14.40;95.10
42479;DHT22;28110;47.080;9.476;2024-03-02T14:58:19;14.40;94.70
42479;DHT22;28110;47.080;9.476;2024-03-02T15:00:45;14.30;95.60
42479;DHT22;28110;47.080;9.476;2024-03-02T15:03:10;14.30;95.20
42479;DHT22;28110;47.080;9.476;2024-03-02T15:05:37;14.30;94.40
42479;DHT22;28110;47.080;9.476;2024-03-02T15:08:04;14.30;92.80
42479;DHT22;28110;47.080;9.476;2024-03-02T15:10:30;14.40;94.00
42479;DHT22;28110;47.080;9.476;2024-03-02T15:12:56;14.30;93.40
42479;DHT22;28110;47.080;9.476;2024-03-02T15:15:22;14.30;93.50
42479;DHT22;28110;47.080;9.476;2024-03-02T15:17:48;14.30;93.70
42479;DHT22;28110;47.080;9.476;2024-03-02T15:20:13;14.30;93.10
42479;DHT22;28110;47.080;9.476;2024-03-02T15:22:39;14.30;94.10
42479;DHT22;28110;47.080;9.476;2024-03-02T15:25:05;14.30;93.80
42479;DHT22;28110;47.080;9.476;2024-03-02T15:27:31;14.40;92.40
42479;DHT22;28110;47.080;9.476;2024-03-02T15:29:56;14.30;92.60
42479;DHT22;28110;47.080;9.476;2024-03-02T15:32:23;14.40;92.70
42479;DHT22;28110;47.080;9.476;2024-03-02T15:34:48;14.30;92.50
42479;DHT22;28110;47.080;9.476;2024-03-02T15:37:14;14.30;92.10
42479;DHT22;28110;47.080;9.476;2024-03-02T15:39:40;14.30;92.10
42479;DHT22;28110;47.080;9.476;2024-03-02T15:42:06;14.30;92.60
42479;DHT22;28110;47.080;9.476;2024-03-02T15:44:31;14.30;92.10
42479;DHT22;28110;47.080;9.476;2024-03-02T15:46:58;14.30;92.10
42479;DHT22;28110;47.080;9.476;2024-03-02T15:49:24;14.30;92.30
42479;DHT22;28110;47.080;9.476;2024-03-02T15:51:49;14.30;91.50